sensor_id;sensor_type;location;lat;lon;timestamp;temperature;humidity
46041;DHT22;31779;49.124;19.190;2022-09-03T00:00:15;10.70;99.90
46041;DHT22;31779;49.124;19.190;2022-09-03T00:10:44;10.30;99.90
46041;DHT22;31779;49.124;19.190;2022-09-03T00:13:14;10.30;99.90
46041;DHT22;31779;49.124;19.190;2022-09-03T00:15:42;10.30;99.90
46041;DHT22;31779;49.124;19.190;2022-09-03T00:18:14;10.20;99.90
46041;DHT22;31779;49.124;19.190;2022-09-03T00:23:22;10.00;99.90
46041;DHT22;31779;49.124;19.190;2022-09-03T00:28:50;10.10;99.90
46041;DHT22;31779;49.124;19.190;2022-09-03T00:34:02;9.90;99.90
46041;DHT22;31779;49.124;19.190;2022-09-03T00:36:37;9.90;99.90
46041;DHT22;31779;49.124;19.190;2022-09-03T00:39:13;9.80;99.90
46041;DHT22;31779;49.124;19.190;2022-09-03T00:46:52;9.80;99.90
46041;DHT22;31779;49.124;19.190;2022-09-03T00:49:32;9.90;99.90
46041;DHT22;31779;49.124;19.190;2022-09-03T00:57:34;9.80;99.90
46041;DHT22;31779;49.124;19.190;2022-09-03T01:00:09;9.90;99.90
46041;DHT22;31779;49.124;19.190;2022-09-03T01:16:02;9.60;99.90
46041;DHT22;31779;49.124;19.190;2022-09-03T01:21:57;9.50;99.90
46041;DHT22;31779;49.124;19.190;2022-09-03T01:32:06;9.30;99.90
46041;DHT22;31779;49.124;19.190;2022-09-03T01:34:40;9.30;99.90
46041;DHT22;31779;49.124;19.190;2022-09-03T01:50:30;8.90;99.90
46041;DHT22;31779;49.124;19.190;2022-09-03T01:53:03;8.90;99.90
46041;DHT22;31779;49.124;19.190;2022-09-03T01:58:27;8.80;99.90
46041;DHT22;31779;49.124;19.190;2022-09-03T02:00:59;8.70;99.90
46041;DHT22;31779;49.124;19.190;2022-09-03T02:03:33;8.80;99.90
46041;DHT22;31779;49.124;19.190;2022-09-03T02:06:09;8.70;99.90
46041;DHT22;31779;49.124;19.190;2022-09-03T02:08:37;8.80;99.90
46041;DHT22;31779;49.124;19.190;2022-09-03T02:11:08;8.70;99.90
46041;DHT22;31779;49.124;19.190;2022-09-03T02:13:49;8.60;99.90
46041;DHT22;31779;49.124;19.190;2022-09-03T02:16:21;8.40;99.90
46041;DHT22;31779;49.124;19.190;2022-09-03T02:18:56;8.50;99.90
46041;DHT22;31779;49.124;19.190;2022-09-03T02:21:25;8.40;99.90
46041;DHT22;31779;49.124;19.190;2022-09-03T02:23:53;8.40;99.90
46041;DHT22;31779;49.124;19.190;2022-09-03T02:26:21;8.40;99.90
46041;DHT22;31779;49.124;19.190;2022-09-03T02:28:50;8.30;99.90
46041;DHT22;31779;49.124;19.190;2022-09-03T02:31:18;8.30;99.90
46041;DHT22;31779;49.124;19.190;2022-09-03T02:33:46;8.30;99.90
46041;DHT22;31779;49.124;19.190;2022-09-03T02:36:16;8.30;99.90
46041;DHT22;31779;49.124;19.190;2022-09-03T02:38:44;8.30;99.90
46041;DHT22;31779;49.124;19.190;2022-09-03T02:41:12;8.30;99.90
46041;DHT22;31779;49.124;19.190;2022-09-03T02:46:20;8.20;99.90
46041;DHT22;31779;49.124;19.190;2022-09-03T02:48:48;8.10;99.90
46041;DHT22;31779;49.124;19.190;2022-09-03T02:51:15;8.10;99.90
46041;DHT22;31779;49.124;19.190;2022-09-03T02:53:43;8.10;99.90
46041;DHT22;31779;49.124;19.190;2022-09-03T02:56:11;7.90;99.90
46041;DHT22;31779;49.124;19.190;2022-09-03T02:58:38;7.90;99.90
46041;DHT22;31779;49.124;19.190;2022-09-03T03:01:07;7.90;99.90
46041;DHT22;31779;49.124;19.190;2022-09-03T03:03:35;7.90;99.90
46041;DHT22;31779;49.124;19.190;2022-09-03T03:06:03;7.90;99.90
46041;DHT22;31779;49.124;19.190;2022-09-03T03:08:31;7.80;99.90
46041;DHT22;31779;49.124;19.190;2022-09-03T03:11:01;7.70;99.90
46041;DHT22;31779;49.124;19.190;2022-09-03T03:13:29;7.80;99.90
46041;DHT22;31779;49.124;19.190;2022-09-03T03:15:57;7.70;99.90
46041;DHT22;31779;49.124;19.190;2022-09-03T03:18:25;7.70;99.90
46041;DHT22;31779;49.124;19.190;2022-09-03T03:20:53;7.70;99.90
46041;DHT22;31779;49.124;19.190;2022-09-03T03:23:21;7.70;99.90
46041;DHT22;31779;49.124;19.190;2022-09-03T03:25:48;7.70;99.90
46041;DHT22;31779;49.124;19.190;2022-09-03T03:28:16;7.60;99.90
46041;DHT22;31779;49.124;19.190;2022-09-03T03:30:46;7.60;99.90
46041;DHT22;31779;49.124;19.190;2022-09-03T03:33:15;7.60;99.90
46041;DHT22;31779;49.124;19.190;2022-09-03T03:35:42;7.60;99.90
46041;DHT22;31779;49.124;19.190;2022-09-03T03:38:10;7.60;99.90
46041;DHT22;31779;49.124;19.190;2022-09-03T03:40:38;7.50;99.90
46041;DHT22;31779;49.124;19.190;2022-09-03T03:43:06;7.50;99.90
46041;DHT22;31779;49.124;19.190;2022-09-03T03:45:33;7.30;99.90
46041;DHT22;31779;49.124;19.190;2022-09-03T03:48:01;7.30;99.90
46041;DHT22;31779;49.124;19.190;2022-09-03T03:50:29;7.30;99.90
46041;DHT22;31779;49.124;19.190;2022-09-03T03:52:59;7.30;99.90
46041;DHT22;31779;49.124;19.190;2022-09-03T03:55:27;7.30;99.90
46041;DHT22;31779;49.124;19.190;2022-09-03T03:58:01;7.30;99.90
46041;DHT22;31779;49.124;19.190;2022-09-03T04:00:28;7.40;99.90
46041;DHT22;31779;49.124;19.190;2022-09-03T04:02:57;7.40;99.90
46041;DHT22;31779;49.124;19.190;2022-09-03T04:05:25;7.40;99.90
46041;DHT22;31779;49.124;19.190;2022-09-03T04:07:59;7.30;99.90
46041;DHT22;31779;49.124;19.190;2022-09-03T04:10:27;7.30;99.90
46041;DHT22;31779;49.124;19.190;2022-09-03T04:12:55;7.30;99.90
46041;DHT22;31779;49.124;19.190;2022-09-03T04:15:22;7.30;99.90
46041;DHT22;31779;49.124;19.190;2022-09-03T04:17:50;7.30;99.90
46041;DHT22;31779;49.124;19.190;2022-09-03T04:20:21;7.30;99.90
46041;DHT22;31779;49.124;19.190;2022-09-03T04:22:48;7.40;99.90
46041;DHT22;31779;49.124;19.190;2022-09-03T04:25:18;7.30;99.90
46041;DHT22;31779;49.124;19.190;2022-09-03T04:27:45;7.30;99.90
46041;DHT22;31779;49.124;19.190;2022-09-03T04:30:13;7.30;99.90
46041;DHT22;31779;49.124;19.190;2022-09-03T04:32:41;7.20;99.90
46041;DHT22;31779;49.124;19.190;2022-09-03T04:35:24;7.20;99.90
46041;DHT22;31779;49.124;19.190;2022-09-03T04:37:56;7.20;99.90
46041;DHT22;31779;49.124;19.190;2022-09-03T04:40:23;7.30;99.90
46041;DHT22;31779;49.124;19.190;2022-09-03T04:42:55;7.40;99.90
46041;DHT22;31779;49.124;19.190;2022-09-03T04:45:23;7.30;99.90
46041;DHT22;31779;49.124;19.190;2022-09-03T04:47:57;7.40;99.90
46041;DHT22;31779;49.124;19.190;2022-09-03T04:50:25;7.50;99.90
46041;DHT22;31779;49.124;19.190;2022-09-03T04:53:02;7.50;99.90
46041;DHT22;31779;49.124;19.190;2022-09-03T04:55:34;7.40;99.90
46041;DHT22;31779;49.124;19.190;2022-09-03T04:58:02;7.40;99.90
46041;DHT22;31779;49.124;19.190;2022-09-03T05:00:30;7.50;99.90
46041;DHT22;31779;49.124;19.190;2022-09-03T05:03:01;7.60;99.90
46041;DHT22;31779;49.124;19.190;2022-09-03T05:05:31;7.80;99.90
46041;DHT22;31779;49.124;19.190;2022-09-03T05:08:00;8.00;99.90
46041;DHT22;31779;49.124;19.190;2022-09-03T05:10:30;8.20;99.90
46041;DHT22;31779;49.124;19.190;2022-09-03T05:12:58;8.40;99.90
46041;DHT22;31779;49.124;19.190;2022-09-03T05:15:27;8.70;99.90
46041;DHT22;31779;49.124;19.190;2022-09-03T05:17:55;8.80;99.90
46041;DHT22;31779;49.124;19.190;2022-09-03T05:20:22;9.10;99.90
46041;DHT22;31779;49.124;19.190;2022-09-03T05:22:51;9.40;99.90
46041;DHT22;31779;49.124;19.190;2022-09-03T05:25:19;9.70;99.90
46041;DHT22;31779;49.124;19.190;2022-09-03T05:27:47;9.80;99.90
46041;DHT22;31779;49.124;19.190;2022-09-03T05:30:14;10.00;99.90
46041;DHT22;31779;49.124;19.190;2022-09-03T05:32:42;10.30;99.90
46041;DHT22;31779;49.124;19.190;2022-09-03T05:35:10;10.50;99.90
46041;DHT22;31779;49.124;19.190;2022-09-03T05:37:38;10.70;99.90
46041;DHT22;31779;49.124;19.190;2022-09-03T05:40:06;11.30;99.90
46041;DHT22;31779;49.124;19.190;2022-09-03T05:42:38;11.30;99.90
46041;DHT22;31779;49.124;19.190;2022-09-03T05:45:07;11.40;99.90
46041;DHT22;31779;49.124;19.190;2022-09-03T05:47:37;11.50;99.90
46041;DHT22;31779;49.124;19.190;2022-09-03T05:50:06;11.60;99.90
46041;DHT22;31779;49.124;19.190;2022-09-03T05:52:35;11.70;99.90
46041;DHT22;31779;49.124;19.190;2022-09-03T05:55:03;11.80;99.90
46041;DHT22;31779;49.124;19.190;2022-09-03T05:57:31;11.80;99.90
46041;DHT22;31779;49.124;19.190;2022-09-03T05:59:59;12.00;99.90
46041;DHT22;31779;49.124;19.190;2022-09-03T06:02:27;11.80;99.90
46041;DHT22;31779;49.124;19.190;2022-09-03T06:04:55;11.80;99.90
46041;DHT22;31779;49.124;19.190;2022-09-03T06:07:24;12.00;99.90
46041;DHT22;31779;49.124;19.190;2022-09-03T06:09:51;12.00;99.90
46041;DHT22;31779;49.124;19.190;2022-09-03T06:12:20;12.10;99.90
46041;DHT22;31779;49.124;19.190;2022-09-03T06:14:47;12.40;99.90
46041;DHT22;31779;49.124;19.190;2022-09-03T06:17:15;12.90;99.90
46041;DHT22;31779;49.124;19.190;2022-09-03T06:19:43;13.10;99.90
46041;DHT22;31779;49.124;19.190;2022-09-03T06:22:11;13.30;99.90
46041;DHT22;31779;49.124;19.190;2022-09-03T06:24:38;13.80;99.90
46041;DHT22;31779;49.124;19.190;2022-09-03T06:27:06;13.90;99.90
46041;DHT22;31779;49.124;19.190;2022-09-03T06:29:34;14.50;99.90
46041;DHT22;31779;49.124;19.190;2022-09-03T06:32:02;14.60;99.90
46041;DHT22;31779;49.124;19.190;2022-09-03T06:34:30;15.00;99.90
46041;DHT22;31779;49.124;19.190;2022-09-03T06:36:58;15.20;99.90
46041;DHT22;31779;49.124;19.190;2022-09-03T06:39:26;15.70;99.90
46041;DHT22;31779;49.124;19.190;2022-09-03T06:41:54;16.10;99.90
46041;DHT22;31779;49.124;19.190;2022-09-03T06:44:32;16.80;99.90
46041;DHT22;31779;49.124;19.190;2022-09-03T06:47:00;17.30;96.90
46041;DHT22;31779;49.124;19.190;2022-09-03T06:49:27;17.60;95.90
46041;DHT22;31779;49.124;19.190;2022-09-03T06:51:55;17.80;96.10
46041;DHT22;31779;49.124;19.190;2022-09-03T06:54:22;17.80;97.60
46041;DHT22;31779;49.124;19.190;2022-09-03T06:56:51;18.60;95.50
46041;DHT22;31779;49.124;19.190;2022-09-03T06:59:19;17.80;97.00
46041;DHT22;31779;49.124;19.190;2022-09-03T07:01:46;18.10;93.30
46041;DHT22;31779;49.124;19.190;2022-09-03T07:04:14;17.30;94.10
46041;DHT22;31779;49.124;19.190;2022-09-03T07:06:46;17.50;93.30
46041;DHT22;31779;49.124;19.190;2022-09-03T07:09:14;17.80;95.00
46041;DHT22;31779;49.124;19.190;2022-09-03T07:11:44;17.80;95.60
46041;DHT22;31779;49.124;19.190;2022-09-03T07:14:15;17.30;93.50
46041;DHT22;31779;49.124;19.190;2022-09-03T07:16:43;17.60;94.50
46041;DHT22;31779;49.124;19.190;2022-09-03T07:19:12;17.80;92.00
46041;DHT22;31779;49.124;19.190;2022-09-03T07:21:40;17.80;91.90
46041;DHT22;31779;49.124;19.190;2022-09-03T07:24:16;18.20;95.90
46041;DHT22;31779;49.124;19.190;2022-09-03T07:26:44;18.60;94.50
46041;DHT22;31779;49.124;19.190;2022-09-03T07:29:16;18.20;93.10
46041;DHT22;31779;49.124;19.190;2022-09-03T07:31:47;18.30;92.20
46041;DHT22;31779;49.124;19.190;2022-09-03T07:34:19;18.60;93.60
46041;DHT22;31779;49.124;19.190;2022-09-03T07:36:48;19.20;92.00
46041;DHT22;31779;49.124;19.190;2022-09-03T07:39:18;19.00;89.60
46041;DHT22;31779;49.124;19.190;2022-09-03T07:41:46;19.00;92.60
46041;DHT22;31779;49.124;19.190;2022-09-03T07:44:14;18.90;91.90
46041;DHT22;31779;49.124;19.190;2022-09-03T07:46:42;19.50;91.10
46041;DHT22;31779;49.124;19.190;2022-09-03T07:49:12;19.20;91.70
46041;DHT22;31779;49.124;19.190;2022-09-03T07:51:40;20.00;90.70
46041;DHT22;31779;49.124;19.190;2022-09-03T07:54:08;20.50;90.20
46041;DHT22;31779;49.124;19.190;2022-09-03T07:56:38;20.60;81.50
46041;DHT22;31779;49.124;19.190;2022-09-03T07:59:06;20.80;82.00
46041;DHT22;31779;49.124;19.190;2022-09-03T08:01:35;21.10;88.20
46041;DHT22;31779;49.124;19.190;2022-09-03T08:04:05;21.60;88.60
46041;DHT22;31779;49.124;19.190;2022-09-03T08:06:36;22.30;75.20
46041;DHT22;31779;49.124;19.190;2022-09-03T08:09:05;22.30;75.40
46041;DHT22;31779;49.124;19.190;2022-09-03T08:11:37;23.10;77.30
46041;DHT22;31779;49.124;19.190;2022-09-03T08:14:06;23.40;73.80
46041;DHT22;31779;49.124;19.190;2022-09-03T08:16:44;24.60;69.40
46041;DHT22;31779;49.124;19.190;2022-09-03T08:19:16;23.30;76.10
46041;DHT22;31779;49.124;19.190;2022-09-03T08:21:44;24.20;69.00
46041;DHT22;31779;49.124;19.190;2022-09-03T08:24:13;26.40;65.00
46041;DHT22;31779;49.124;19.190;2022-09-03T08:26:41;31.30;59.40
46041;DHT22;31779;49.124;19.190;2022-09-03T08:29:16;35.40;47.50
46041;DHT22;31779;49.124;19.190;2022-09-03T08:31:44;33.90;47.40
46041;DHT22;31779;49.124;19.190;2022-09-03T08:34:12;36.80;42.50
46041;DHT22;31779;49.124;19.190;2022-09-03T08:36:40;39.30;37.20
46041;DHT22;31779;49.124;19.190;2022-09-03T08:39:09;40.00;35.40
46041;DHT22;31779;49.124;19.190;2022-09-03T08:52:00;44.00;32.10
46041;DHT22;31779;49.124;19.190;2022-09-03T08:54:29;45.80;31.70
46041;DHT22;31779;49.124;19.190;2022-09-03T08:56:59;43.60;31.50
46041;DHT22;31779;49.124;19.190;2022-09-03T08:59:30;47.90;31.20
46041;DHT22;31779;49.124;19.190;2022-09-03T09:02:03;48.70;30.10
46041;DHT22;31779;49.124;19.190;2022-09-03T09:07:20;45.60;28.60
46041;DHT22;31779;49.124;19.190;2022-09-03T09:10:11;45.70;29.40
46041;DHT22;31779;49.124;19.190;2022-09-03T09:18:05;44.10;30.80
46041;DHT22;31779;49.124;19.190;2022-09-03T09:20:49;47.50;29.10
46041;DHT22;31779;49.124;19.190;2022-09-03T09:23:30;50.40;27.90
46041;DHT22;31779;49.124;19.190;2022-09-03T09:26:01;49.70;30.00
46041;DHT22;31779;49.124;19.190;2022-09-03T09:28:35;46.70;29.80
46041;DHT22;31779;49.124;19.190;2022-09-03T09:31:09;46.70;29.10
46041;DHT22;31779;49.124;19.190;2022-09-03T09:33:39;50.20;28.30
46041;DHT22;31779;49.124;19.190;2022-09-03T09:36:07;50.70;28.00
46041;DHT22;31779;49.124;19.190;2022-09-03T09:38:36;49.60;27.60
46041;DHT22;31779;49.124;19.190;2022-09-03T09:41:12;49.20;29.00
46041;DHT22;31779;49.124;19.190;2022-09-03T09:43:41;50.50;27.90
46041;DHT22;31779;49.124;19.190;2022-09-03T09:46:13;46.50;29.00
46041;DHT22;31779;49.124;19.190;2022-09-03T09:48:51;50.80;28.30
46041;DHT22;31779;49.124;19.190;2022-09-03T09:51:20;50.30;28.30
46041;DHT22;31779;49.124;19.190;2022-09-03T09:54:01;52.10;28.60
46041;DHT22;31779;49.124;19.190;2022-09-03T09:56:29;52.60;28.90
46041;DHT22;31779;49.124;19.190;2022-09-03T09:59:04;55.80;27.30
46041;DHT22;31779;49.124;19.190;2022-09-03T10:01:33;54.00;25.90
46041;DHT22;31779;49.124;19.190;2022-09-03T10:04:34;54.10;27.60
46041;DHT22;31779;49.124;19.190;2022-09-03T10:07:23;53.30;26.30
46041;DHT22;31779;49.124;19.190;2022-09-03T10:10:06;51.30;26.70
46041;DHT22;31779;49.124;19.190;2022-09-03T10:17:49;49.00;28.10
46041;DHT22;31779;49.124;19.190;2022-09-03T10:20:21;51.10;26.60
46041;DHT22;31779;49.124;19.190;2022-09-03T10:22:54;51.70;26.30
46041;DHT22;31779;49.124;19.190;2022-09-03T10:26:25;53.50;26.30
46041;DHT22;31779;49.124;19.190;2022-09-03T10:28:26;53.20;25.90
46041;DHT22;31779;49.124;19.190;2022-09-03T10:31:02;51.90;25.80
46041;DHT22;31779;49.124;19.190;2022-09-03T10:33:38;50.80;26.60
46041;DHT22;31779;49.124;19.190;2022-09-03T10:36:27;50.30;26.20
46041;DHT22;31779;49.124;19.190;2022-09-03T10:39:01;50.10;27.70
46041;DHT22;31779;49.124;19.190;2022-09-03T10:49:38;50.20;26.50
46041;DHT22;31779;49.124;19.190;2022-09-03T10:54:50;49.30;26.10
46041;DHT22;31779;49.124;19.190;2022-09-03T11:02:33;49.20;25.90
46041;DHT22;31779;49.124;19.190;2022-09-03T11:05:11;49.10;27.20
46041;DHT22;31779;49.124;19.190;2022-09-03T11:07:44;49.20;25.80
46041;DHT22;31779;49.124;19.190;2022-09-03T11:10:20;49.00;26.60
46041;DHT22;31779;49.124;19.190;2022-09-03T11:18:46;46.80;26.20
46041;DHT22;31779;49.124;19.190;2022-09-03T11:21:15;49.50;25.90
46041;DHT22;31779;49.124;19.190;2022-09-03T11:23:45;46.90;26.70
46041;DHT22;31779;49.124;19.190;2022-09-03T11:26:17;45.50;28.20
46041;DHT22;31779;49.124;19.190;2022-09-03T11:34:05;42.40;28.20
46041;DHT22;31779;49.124;19.190;2022-09-03T11:36:36;44.10;30.00
46041;DHT22;31779;49.124;19.190;2022-09-03T11:39:21;43.00;28.50
46041;DHT22;31779;49.124;19.190;2022-09-03T11:41:57;43.70;28.20
46041;DHT22;31779;49.124;19.190;2022-09-03T11:44:33;46.70;28.80
46041;DHT22;31779;49.124;19.190;2022-09-03T11:49:47;46.10;28.50
46041;DHT22;31779;49.124;19.190;2022-09-03T11:52:27;44.00;26.90
46041;DHT22;31779;49.124;19.190;2022-09-03T11:54:55;44.60;27.30
46041;DHT22;31779;49.124;19.190;2022-09-03T11:57:26;43.70;29.30
46041;DHT22;31779;49.124;19.190;2022-09-03T12:00:12;40.90;28.20
46041;DHT22;31779;49.124;19.190;2022-09-03T12:02:43;39.00;31.60
46041;DHT22;31779;49.124;19.190;2022-09-03T12:12:54;34.00;31.30
46041;DHT22;31779;49.124;19.190;2022-09-03T12:18:00;34.50;32.20
46041;DHT22;31779;49.124;19.190;2022-09-03T12:23:32;32.90;35.00
46041;DHT22;31779;49.124;19.190;2022-09-03T12:26:05;30.70;36.90
46041;DHT22;31779;49.124;19.190;2022-09-03T12:28:51;29.80;38.80
46041;DHT22;31779;49.124;19.190;2022-09-03T12:31:41;28.00;41.70
46041;DHT22;31779;49.124;19.190;2022-09-03T12:34:30;28.20;42.90
46041;DHT22;31779;49.124;19.190;2022-09-03T12:37:18;28.20;42.30
46041;DHT22;31779;49.124;19.190;2022-09-03T12:40:22;27.20;43.70
46041;DHT22;31779;49.124;19.190;2022-09-03T12:42:50;26.80;44.90
46041;DHT22;31779;49.124;19.190;2022-09-03T12:45:22;26.40;44.30
46041;DHT22;31779;49.124;19.190;2022-09-03T12:47:51;25.90;45.10
46041;DHT22;31779;49.124;19.190;2022-09-03T12:50:20;25.40;48.70
46041;DHT22;31779;49.124;19.190;2022-09-03T12:53:06;25.40;47.40
46041;DHT22;31779;49.124;19.190;2022-09-03T12:58:22;25.20;45.70
46041;DHT22;31779;49.124;19.190;2022-09-03T13:00:53;25.00;48.80
46041;DHT22;31779;49.124;19.190;2022-09-03T13:05:53;24.30;50.60
46041;DHT22;31779;49.124;19.190;2022-09-03T13:08:25;24.00;49.90
46041;DHT22;31779;49.124;19.190;2022-09-03T13:10:54;24.00;48.60
46041;DHT22;31779;49.124;19.190;2022-09-03T13:13:23;23.30;48.70
46041;DHT22;31779;49.124;19.190;2022-09-03T13:21:21;22.70;53.60
46041;DHT22;31779;49.124;19.190;2022-09-03T13:31:49;22.20;54.60
46041;DHT22;31779;49.124;19.190;2022-09-03T13:41:47;22.30;56.20
46041;DHT22;31779;49.124;19.190;2022-09-03T13:46:53;22.40;57.70
46041;DHT22;31779;49.124;19.190;2022-09-03T13:52:10;22.60;54.40
46041;DHT22;31779;49.124;19.190;2022-09-03T13:54:44;22.90;53.50
46041;DHT22;31779;49.124;19.190;2022-09-03T14:00:06;23.50;57.00
46041;DHT22;31779;49.124;19.190;2022-09-03T14:05:33;23.80;48.70
46041;DHT22;31779;49.124;19.190;2022-09-03T14:08:04;23.40;49.40
46041;DHT22;31779;49.124;19.190;2022-09-03T14:13:29;22.90;48.30
46041;DHT22;31779;49.124;19.190;2022-09-03T14:18:53;23.30;51.30
46041;DHT22;31779;49.124;19.190;2022-09-03T14:21:34;23.40;54.30
46041;DHT22;31779;49.124;19.190;2022-09-03T14:26:48;23.20;47.90
46041;DHT22;31779;49.124;19.190;2022-09-03T14:29:16;22.90;51.20
46041;DHT22;31779;49.124;19.190;2022-09-03T14:34:15;22.60;58.40
46041;DHT22;31779;49.124;19.190;2022-09-03T14:39:20;22.10;62.20
46041;DHT22;31779;49.124;19.190;2022-09-03T14:42:00;21.50;63.90
46041;DHT22;31779;49.124;19.190;2022-09-03T14:55:14;20.90;69.00
46041;DHT22;31779;49.124;19.190;2022-09-03T15:08:49;21.40;68.80
46041;DHT22;31779;49.124;19.190;2022-09-03T15:11:22;21.70;65.50
46041;DHT22;31779;49.124;19.190;2022-09-03T15:13:59;21.20;67.80
46041;DHT22;31779;49.124;19.190;2022-09-03T15:16:37;21.20;68.90
46041;DHT22;31779;49.124;19.190;2022-09-03T15:22:18;21.10;62.90
46041;DHT22;31779;49.124;19.190;2022-09-03T15:32:59;20.60;59.30
46041;DHT22;31779;49.124;19.190;2022-09-03T15:38:07;20.70;64.60
46041;DHT22;31779;49.124;19.190;2022-09-03T15:40:55;20.10;71.20
46041;DHT22;31779;49.124;19.190;2022-09-03T15:43:30;19.60;72.20
46041;DHT22;31779;49.124;19.190;2022-09-03T15:46:04;19.10;73.20
46041;DHT22;31779;49.124;19.190;2022-09-03T15:48:48;18.90;75.10
46041;DHT22;31779;49.124;19.190;2022-09-03T15:53:47;18.80;78.40
46041;DHT22;31779;49.124;19.190;2022-09-03T15:56:25;18.50;79.00
46041;DHT22;31779;49.124;19.190;2022-09-03T15:59:02;18.10;77.70
46041;DHT22;31779;49.124;19.190;2022-09-03T16:01:35;17.80;79.70
46041;DHT22;31779;49.124;19.190;2022-09-03T16:15:03;17.40;87.90
46041;DHT22;31779;49.124;19.190;2022-09-03T16:20:24;17.50;82.30
46041;DHT22;31779;49.124;19.190;2022-09-03T16:23:09;17.30;86.20
46041;DHT22;31779;49.124;19.190;2022-09-03T16:25:56;17.40;91.10
46041;DHT22;31779;49.124;19.190;2022-09-03T16:31:01;17.10;94.80
46041;DHT22;31779;49.124;19.190;2022-09-03T16:33:53;16.90;96.70
46041;DHT22;31779;49.124;19.190;2022-09-03T16:39:41;16.90;98.50
46041;DHT22;31779;49.124;19.190;2022-09-03T16:41:46;16.80;99.80
46041;DHT22;31779;49.124;19.190;2022-09-03T16:44:22;16.90;99.90
46041;DHT22;31779;49.124;19.190;2022-09-03T16:47:04;16.80;99.90
46041;DHT22;31779;49.124;19.190;2022-09-03T16:52:32;16.60;99.90
46041;DHT22;31779;49.124;19.190;2022-09-03T16:55:19;16.30;99.90
46041;DHT22;31779;49.124;19.190;2022-09-03T16:57:53;16.30;99.90
46041;DHT22;31779;49.124;19.190;2022-09-03T17:08:40;16.20;99.90
46041;DHT22;31779;49.124;19.190;2022-09-03T17:11:16;16.00;99.90
46041;DHT22;31779;49.124;19.190;2022-09-03T17:13:48;15.80;99.90
46041;DHT22;31779;49.124;19.190;2022-09-03T17:16:37;15.70;99.90
46041;DHT22;31779;49.124;19.190;2022-09-03T17:26:44;15.30;99.90
46041;DHT22;31779;49.124;19.190;2022-09-03T17:45:08;15.00;99.90
46041;DHT22;31779;49.124;19.190;2022-09-03T17:50:41;14.70;99.90
46041;DHT22;31779;49.124;19.190;2022-09-03T17:53:16;14.70;99.90
46041;DHT22;31779;49.124;19.190;2022-09-03T17:55:53;14.70;99.90
46041;DHT22;31779;49.124;19.190;2022-09-03T17:58:24;14.70;99.90
46041;DHT22;31779;49.124;19.190;2022-09-03T18:03:43;14.50;99.90
46041;DHT22;31779;49.124;19.190;2022-09-03T18:08:59;14.50;99.90
46041;DHT22;31779;49.124;19.190;2022-09-03T18:14:10;14.30;99.90
46041;DHT22;31779;49.124;19.190;2022-09-03T18:16:46;14.20;99.90
46041;DHT22;31779;49.124;19.190;2022-09-03T18:19:35;14.10;99.90
46041;DHT22;31779;49.124;19.190;2022-09-03T18:22:25;14.10;99.90
46041;DHT22;31779;49.124;19.190;2022-09-03T18:25:14;14.00;99.90
46041;DHT22;31779;49.124;19.190;2022-09-03T18:28:02;14.00;99.90
46041;DHT22;31779;49.124;19.190;2022-09-03T18:30:52;13.70;99.90
46041;DHT22;31779;49.124;19.190;2022-09-03T18:33:38;13.80;99.90
46041;DHT22;31779;49.124;19.190;2022-09-03T18:36:25;13.70;99.90
46041;DHT22;31779;49.124;19.190;2022-09-03T18:45:42;13.50;99.90
46041;DHT22;31779;49.124;19.190;2022-09-03T18:49:09;13.40;99.90
46041;DHT22;31779;49.124;19.190;2022-09-03T18:52:09;13.30;99.90
46041;DHT22;31779;49.124;19.190;2022-09-03T19:07:12;13.00;99.90
46041;DHT22;31779;49.124;19.190;2022-09-03T19:09:55;13.00;99.90
46041;DHT22;31779;49.124;19.190;2022-09-03T19:15:33;12.80;99.90
46041;DHT22;31779;49.124;19.190;2022-09-03T19:21:36;12.70;99.90
46041;DHT22;31779;49.124;19.190;2022-09-03T19:24:28;12.60;99.90
46041;DHT22;31779;49.124;19.190;2022-09-03T19:51:11;12.10;99.90
46041;DHT22;31779;49.124;19.190;2022-09-03T19:54:00;12.10;99.90
46041;DHT22;31779;49.124;19.190;2022-09-03T19:56:49;12.00;99.90
46041;DHT22;31779;49.124;19.190;2022-09-03T19:59:38;12.00;99.90
46041;DHT22;31779;49.124;19.190;2022-09-03T20:02:24;12.00;99.90
46041;DHT22;31779;49.124;19.190;2022-09-03T20:05:16;11.90;99.90
46041;DHT22;31779;49.124;19.190;2022-09-03T20:08:05;11.80;99.90
46041;DHT22;31779;49.124;19.190;2022-09-03T20:10:54;11.80;99.90
46041;DHT22;31779;49.124;19.190;2022-09-03T20:13:22;11.70;99.90
46041;DHT22;31779;49.124;19.190;2022-09-03T20:23:43;11.60;99.90
46041;DHT22;31779;49.124;19.190;2022-09-03T20:34:07;11.30;99.90
46041;DHT22;31779;49.124;19.190;2022-09-03T20:39:35;11.40;99.90
46041;DHT22;31779;49.124;19.190;2022-09-03T20:55:31;11.10;99.90
46041;DHT22;31779;49.124;19.190;2022-09-03T21:00:31;11.10;99.90
46041;DHT22;31779;49.124;19.190;2022-09-03T21:06:01;11.00;99.90
46041;DHT22;31779;49.124;19.190;2022-09-03T21:11:11;10.90;99.90
46041;DHT22;31779;49.124;19.190;2022-09-03T21:13:44;10.90;99.90
46041;DHT22;31779;49.124;19.190;2022-09-03T21:16:33;10.70;99.90
46041;DHT22;31779;49.124;19.190;2022-09-03T21:24:12;10.70;99.90
46041;DHT22;31779;49.124;19.190;2022-09-03T21:26:42;10.70;99.90
46041;DHT22;31779;49.124;19.190;2022-09-03T21:31:51;10.70;99.90
46041;DHT22;31779;49.124;19.190;2022-09-03T21:34:24;10.70;99.90
46041;DHT22;31779;49.124;19.190;2022-09-03T21:36:53;10.70;99.90
46041;DHT22;31779;49.124;19.190;2022-09-03T21:39:27;10.70;99.90
46041;DHT22;31779;49.124;19.190;2022-09-03T21:41:59;10.60;99.90
46041;DHT22;31779;49.124;19.190;2022-09-03T21:46:58;10.60;99.90
46041;DHT22;31779;49.124;19.190;2022-09-03T21:49:30;10.60;99.90
46041;DHT22;31779;49.124;19.190;2022-09-03T21:52:03;10.70;99.90
46041;DHT22;31779;49.124;19.190;2022-09-03T21:54:33;10.80;99.90
46041;DHT22;31779;49.124;19.190;2022-09-03T22:04:35;10.60;99.90
46041;DHT22;31779;49.124;19.190;2022-09-03T22:09:43;10.60;99.90
46041;DHT22;31779;49.124;19.190;2022-09-03T22:12:33;10.50;99.90
46041;DHT22;31779;49.124;19.190;2022-09-03T22:15:05;10.50;99.90
46041;DHT22;31779;49.124;19.190;2022-09-03T22:17:42;10.50;99.90
46041;DHT22;31779;49.124;19.190;2022-09-03T22:20:13;10.40;99.90
46041;DHT22;31779;49.124;19.190;2022-09-03T22:22:47;10.30;99.90
46041;DHT22;31779;49.124;19.190;2022-09-03T22:25:43;10.30;99.90
46041;DHT22;31779;49.124;19.190;2022-09-03T22:30:52;10.40;99.90
46041;DHT22;31779;49.124;19.190;2022-09-03T22:33:28;10.30;99.90
46041;DHT22;31779;49.124;19.190;2022-09-03T22:46:54;10.10;99.90
46041;DHT22;31779;49.124;19.190;2022-09-03T22:51:59;10.10;99.90